createdAt,value
2022-07-29T00:14:25.684Z,98416.28
2022-07-29T00:34:47.256Z,98409.28
2022-07-29T00:54:50.005Z,98400.59
2022-07-29T01:14:52.664Z,98395.63
2022-07-29T01:34:55.334Z,98371.63
2022-07-29T01:54:58.165Z,98368.66
2022-07-29T02:15:00.854Z,98360.31
2022-07-29T02:35:03.764Z,98333.63
2022-07-29T02:55:06.333Z,98333.19
2022-07-29T03:15:09.185Z,98325.19
2022-07-29T03:35:11.773Z,98324.63
2022-07-29T03:55:14.691Z,98322.72
2022-07-29T04:15:17.461Z,98330.16
2022-07-29T04:35:20.180Z,98323.41
2022-07-29T04:55:22.840Z,98308.09
2022-07-29T05:15:25.791Z,98311.84
2022-07-29T05:35:28.792Z,98302.37
2022-07-29T05:55:31.304Z,98310.41
2022-07-29T06:15:34.040Z,98313.59
2022-07-29T06:35:41.714Z,98311.66
2022-07-29T06:55:45.075Z,98313.41
2022-07-29T07:15:49.914Z,98309.13
2022-07-29T07:35:52.656Z,98311.59
2022-07-29T07:56:12.191Z,98325.75
2022-07-29T08:16:17.139Z,98326.91
2022-07-29T08:36:20.170Z,98311.06
2022-07-29T08:56:22.710Z,98312.88
2022-07-29T09:16:50.903Z,98300.97
2022-07-29T09:36:48.311Z,98300.38
2022-07-29T09:56:51.081Z,98291.84
2022-07-29T10:16:54.119Z,98275.62
2022-07-29T10:36:56.778Z,98257.91
2022-07-29T10:57:00.336Z,98244.81
2022-07-29T11:17:06.297Z,98230.06
2022-07-29T11:37:09.666Z,98237.31
2022-07-29T11:57:12.917Z,98218.41
2022-07-29T12:17:18.447Z,98224.81
2022-07-29T12:37:40.552Z,98217.09
2022-07-29T12:57:43.952Z,98210.34
2022-07-29T13:17:47.937Z,98196.91
2022-07-29T13:37:51.973Z,98188.78
2022-07-29T13:57:54.718Z,98165.81
2022-07-29T14:17:57.400Z,98124.41
2022-07-29T14:38:00.030Z,98100.66
2022-07-29T14:58:09.873Z,98091.03
2022-07-29T15:18:15.019Z,98087.44
2022-07-29T15:38:28.870Z,98079.91
2022-07-29T15:58:31.865Z,98090.78
2022-07-29T16:18:34.624Z,98108.38
2022-07-29T16:38:37.610Z,98090.06
2022-07-29T16:58:50.202Z,98094.44
2022-07-29T17:18:53.740Z,98163.97
2022-07-29T17:38:56.586Z,98200.81
2022-07-29T17:59:02.282Z,98198.38
2022-07-29T18:19:05.058Z,98219.78
2022-07-29T18:39:07.563Z,98219.47
2022-07-29T18:59:11.903Z,98190.72
2022-07-29T19:19:15.681Z,98176.97
2022-07-29T19:39:18.456Z,98195.94
2022-07-29T19:59:37.841Z,98204.19
2022-07-29T20:19:40.469Z,98203.03
2022-07-29T20:39:49.564Z,98197.00
2022-07-29T20:59:52.144Z,98187.37
2022-07-29T21:19:56.437Z,98170.47
2022-07-29T21:39:59.449Z,98154.44
2022-07-29T22:00:03.153Z,98111.50
2022-07-29T22:20:05.917Z,98127.28
2022-07-29T22:40:08.731Z,98095.47
2022-07-29T23:00:11.421Z,98104.38
2022-07-29T23:20:14.879Z,98073.59
2022-07-29T23:40:17.776Z,98045.16
